Hunmanby, United Kingdom
Current Conditions -  °F | °C
As of 6:50 AM on Saturday 29 Nov 2014 (Local Time) from EGXV Reporting Station
Haze Haze  
Wind Chill: 50°   Ceiling: 900
Heat Index: 50°   Visibility: 2.6mi
Dew Point: 48°   Wind: 7mph
Humidity: 94%   Direction: 120°ESE
Pressure: 29.88"   Gusts: NA
Location:  54.18°N, 0.32°W
Report Text: EGXV 290650Z AUTO 12006KT 4300 HZ OVC009/// 10/09 Q1012 RERA
Loading
Personal Weather Stations






























Interactive Weather Map New forecast layout! Learn more

10-Day Weather Forecast

Advertisements
Track Severe Weather on mobile